AirNav   Air Wisconsin pilot careers
 
 1578 users online  

F36 Cordell Municipal Airport
Cordell, Oklahoma, USA

GOING TO CORDELL?


FAA INFORMATION EFFECTIVE 29 MARCH 2018

Location

FAA Identifier: F36
Lat/Long: 35-17-46.6773N / 098-58-03.7763W
35-17.777955N / 098-58.062938W
35.2962992 / -98.9677156
(estimated)
Elevation: 1589.4 ft. / 484.4 m (surveyed)
Variation: 08E (1985)
From city: 1 mile E of CORDELL, OK
Time zone: UTC -5 (UTC -6 during Standard Time)
Zip code: 73632

Airport Operations

Airport use: Open to the public
Activation date: 11/1948
Control tower: no
ARTCC: FORT WORTH CENTER
FSS: MC ALESTER FLIGHT SERVICE STATION
NOTAMs facility: MLC (NOTAM-D service available)
Attendance: MON-FRI 0700-1600
FOR ATTENDANT AFT HRS CALL 580-660-0417 OR POLICE DEPARTMENT 580-832-3046.
Wind indicator: lighted
Segmented circle: yes
Lights: ACTVT MIRL RY 17/35 - CTAF.
Beacon: white-green (lighted land airport)
Operates sunset to sunrise.

Airport Communications

CTAF: 122.9
WX ASOS at CSM (12 nm W): 118.450 (580-562-4811)
WX AWOS-3 at CLK (15 nm N): 119.225 (580-323-8477)
WX ASOS at HBR (19 nm S): 133.325 (580-726-6651)

Nearby radio navigation aids

VOR radial/distance  VOR name  Freq  Var
BFVr068/12.2BURNS FLAT VORTAC110.0005E
HBRr000/26.2HOBART VORTAC111.8010E

 
NDB name  Hdg/Dist  Freq  Var  ID
FOSSI124/14.739305EBZ -... --..

Airport Services

Parking: tiedowns
Airframe service: NONE
Powerplant service: NONE
Bottled oxygen: NONE
Bulk oxygen: NONE

Runway Information

Runway 17/35

Dimensions: 3430 x 60 ft. / 1045 x 18 m
Surface: asphalt, in good condition
Weight bearing capacity: 
Single wheel: 12.6
Runway edge lights: medium intensity
RUNWAY 17  RUNWAY 35
Latitude: 35-18.116397N35-17.551080N
Longitude: 098-58.043250W098-58.043937W
Elevation: 1589.4 ft.1556.1 ft.
Gradient: 1.3%1.3%
Traffic pattern: leftleft
Runway heading: 172 magnetic, 180 true352 magnetic, 000 true
Markings: basic, in good conditionbasic, in good condition
Touchdown point: yes, no lightsyes, no lights

Runway 4/22

Dimensions: 1886 x 100 ft. / 575 x 30 m
Surface: turf, in fair condition
RUNWAY 4  RUNWAY 22
Latitude: 35-17.567472N35-17.785535N
Longitude: 098-58.233190W098-57.963048W
Elevation: 1550.1 ft.1571.2 ft.
Gradient: 1.1%1.1%
Traffic pattern: leftleft
Runway heading: 037 magnetic, 045 true217 magnetic, 225 true
Touchdown point: yes, no lightsyes, no lights
Obstructions: 15 ft. road, 200 ft. from runway, 13:1 slope to clearnone

Airport Ownership and Management from official FAA records

Ownership: Publicly-owned
Owner: CITY OF CORDELL
CITY HALL 101 E MAIN
CORDELL, OK 73632
Phone 580-832-3825
Manager: CHARLIE BROWN
525 GREGORY PARK LANE
CORDELL, OK 73632
Phone 580-660-0417

Airport Operational Statistics

Aircraft based on the field: 5
Single engine airplanes: 5
    
Aircraft operations: avg 38/month *
67% local general aviation
33% transient general aviation
* for 12-month period ending 23 June 2015

Instrument Procedures

There are no published instrument procedures at F36.

Some nearby airports with instrument procedures:

KCSM - Clinton-Sherman Airport (12 nm W)
KCLK - Clinton Regional Airport (15 nm N)
KHBR - Hobart Regional Airport (19 nm S)
KOJA - Thomas P Stafford Airport (21 nm NE)
KELK - Elk City Regional Business Airport (22 nm W)
 
Loc | Ops | Rwys | IFR | FBO | Links
Com | Nav | Svcs | Stats | Notes

AirNav Hotels Sweepstakes
 
Area around F36 (Cordell Municipal Airport)
 
Road maps at: MapQuest Bing Google
 
Aerial photo
WARNING: Photo may not be current or correct
Aerial photo of F36 (Cordell Municipal Airport)
Do you have a better or more recent aerial photo of Cordell Municipal Airport that you would like to share? If so, please send us your photo.

 
Sectional chart

 
Airport distance calculator
Flying to Cordell Municipal Airport? Find the distance to fly.

From to F36

Sunrise and sunset
Times for 25-Apr-2018
 Local
(UTC-5)
 Zulu
(UTC)
Morning civil twilight06:2511:25
Sunrise06:5211:52
Sunset20:1601:16
Evening civil twilight20:4201:42

Current date and time
Zulu (UTC)  25-Apr-2018 14:57:38
Local (UTC-5)  25-Apr-2018 09:57:38
 
METAR
KCSM 
12nm W 
251453Z 33014G21KT 10SM BKN011 OVC085 06/04 A3029 RMK AO2 RAE38 SLP255 P0000 60025 T00560044 51018
KHBR 
19nm S 
251453Z AUTO 34015KT 8SM -RA SCT012 BKN050 OVC070 07/06 A3029 RMK AO2 SLP255 P0008 60028 T00720056 53005
KOJA 
21nm NE 
251435Z AUTO 34013KT 7SM -RA BKN009 BKN014 OVC024 06/06 A3026 RMK AO2 P0004
KELK 
22nm W 
251435Z AUTO 33015G19KT 10SM SCT010 BKN075 OVC090 06/04 A3028 RMK AO2 T00560043
TAF
KCSM 
12nm W 
251120Z 2512/2612 34018G26KT P6SM -RA OVC050 TEMPO 2512/2516 4SM -SHRA OVC012 FM251700 34018G26KT P6SM BKN050 FM260100 32005KT P6SM SKC
NOTAMs
Click for the latest NOTAMs
NOTAMs are issued by the DoD/FAA and will open in a separate window not controlled by AirNav.

 

 
 

Would you like to see your business listed on this page?

 If your business provides an interesting product or service to pilots, flight crews, aircraft, or users of the Cordell Municipal Airport, you should consider listing it here.  To start the listing process, click on the button below
 
Add a business
 

Other Pages about Cordell Municipal Airport

Update a link
 
Copyright © AirNav, LLC. All rights reserved. Privacy Policy  Contact